Speedwell, VA (24374)

3:12 AM EDT on July 30, 2015 (GMT -0400)
APRSWXNET | | Change Station
CLOSE
Current Station
Personal Weather Station
Location: Elk Creek, VA
Elevation: 2805 ft
Nearby Weather Stations

Elev 2805 ft 36.74 °N, 81.19 °W | Updated 35 minutes ago

Mostly Cloudy
Mostly Cloudy
66 °F
Feels Like 66 °F
N
0
Wind Variable Wind from West
Gusts 2.0 mph

Today
High -- | Low -- °F
--% Chance of Precip.
Yesterday
High -- | Low -- °F
Precip. -- in
6:28 AM 8:33 PM
Waxing Gibbous, 98% visible
Pressure 30.11 in
Visibility 0.2 miles
Clouds Overcast 100 ft
Dew Point 65 °F
Humidity 97%
Rainfall in
Snow Depth Not available.
UV 0 out of 12
Pollen 4.30 out of 12
Air Quality Not available.
Flu Activity Not available.
METAR KMKJ 300655Z AUTO 00000KT M1/4SM FG OVC001 19/19 A3011 RMK AO2 T01930186

More Conditions Fewer Conditions

Pressure 30.11 in
Visibility 0.2 miles
Clouds Overcast 100 ft
Dew Point 65 °F
Humidity 97%
Rainfall in
Snow Depth Not available.
UV 0 out of 12
Pollen 4.30 out of 12
Air Quality Not available.
Flu Activity Not available.
METAR KMKJ 300655Z AUTO 00000KT M1/4SM FG OVC001 19/19 A3011 RMK AO2 T01930186

More Conditions Fewer Conditions

10-Day Weather Forecast

×

Almanac

Astronomy

Jul. 30, 2015 Rise Set
Actual Time
Civil Twilight
Nautical Twilight
Astronomical Twilight
Moon
Length of Visible Light
Length of Day
Tomorrow will be .
, % of the Moon is Illuminated

Today's Extremes

State Highs State Lows

Community

WunderPhotos

Upload Photos

1,842,312 photos uploaded!

WunderBlogs® & News

Nearby

Air Quality

  Air Quality AQ Index Pollutant
Not available.

Snow Depth

Station Depth Elevation

Earthquake Activity

City Distance Mag. Time & Date
Minimum magnitude displayed is 2.5.

Coastal Water Temperatures

Place Temperature

Stations

Nearby Weather Stations

Station Location Temp. Windchill Dew Point Humidity Wind Precip. Elev Updated Type